Time;durP1;ratioP1;P1;durP2;ratioP2;P2;SDS_P1;SDS_P2;PMS_P1;PMS_P2;Temp;Humidity;BMP_temperature;BMP_pressure;BME280_temperature;BME280_humidity;BME280_pressure;Samples;Min_cycle;Max_cycle;Signal;HPM_P1;HPM_P2
2022/09/25 00:01:36;;;;;;;3.92;1.27;;;8.20;99.90;;;;;;5032779;28;20076;-68
2022/09/25 00:04:02;;;;;;;1.75;0.93;;;8.20;99.90;;;;;;4998425;28;20046;-69
2022/09/25 00:06:29;;;;;;;4.53;1.20;;;8.20;99.90;;;;;;5014368;28;20493;-69
2022/09/25 00:08:56;;;;;;;5.03;1.48;;;8.20;99.90;;;;;;5014655;28;20041;-69
2022/09/25 00:11:26;;;;;;;6.15;1.30;;;8.10;99.90;;;;;;5032387;28;20473;-69
2022/09/25 00:13:54;;;;;;;5.15;1.48;;;8.10;99.90;;;;;;5032285;28;20049;-69
2022/09/25 00:16:24;;;;;;;5.75;1.45;;;8.30;99.90;;;;;;5032413;28;20046;-69
2022/09/25 00:21:34;;;;;;;5.00;1.35;;;8.10;99.90;;;;;;5032062;28;20054;-69
2022/09/25 00:24:06;;;;;;;5.05;1.50;;;8.30;99.90;;;;;;5032538;28;20037;-66
2022/09/25 00:26:36;;;;;;;9.48;2.00;;;8.10;99.90;;;;;;5014593;28;20493;-67
2022/09/25 00:29:03;;;;;;;4.80;1.48;;;8.10;99.90;;;;;;5032259;28;20095;-69
2022/09/25 00:31:29;;;;;;;3.50;1.33;;;8.10;99.90;;;;;;5032270;28;20483;-71
2022/09/25 00:34:00;;;;;;;5.43;1.40;;;8.10;99.90;;;;;;5031845;28;20038;-70
2022/09/25 00:36:27;;;;;;;4.68;1.40;;;8.00;99.90;;;;;;5014277;28;20095;-69
2022/09/25 00:38:53;;;;;;;6.20;1.38;;;8.00;99.90;;;;;;5032280;28;20512;-69
2022/09/25 00:41:22;;;;;;;7.88;1.30;;;8.10;99.90;;;;;;5031311;28;20121;-71
2022/09/25 00:43:50;;;;;;;3.35;1.20;;;8.00;99.90;;;;;;5032138;28;20060;-68
2022/09/25 00:46:39;;;;;;;4.03;1.40;;;8.10;99.90;;;;;;5014352;28;20081;-73
2022/09/25 00:49:15;;;;;;;3.92;1.30;;;8.00;99.90;;;;;;5035367;28;20547;-69
2022/09/25 00:51:56;;;;;;;5.32;1.33;;;8.00;99.90;;;;;;5035690;28;20043;-71
2022/09/25 00:54:29;;;;;;;5.03;1.40;;;8.00;99.90;;;;;;5018337;28;20076;-69
2022/09/25 00:56:57;;;;;;;7.32;1.50;;;8.00;99.90;;;;;;5035749;28;20045;-68
2022/09/25 00:59:32;;;;;;;5.40;1.27;;;7.90;99.90;;;;;;5035730;28;20049;-67
2022/09/25 01:01:58;;;;;;;6.43;1.25;;;7.90;99.90;;;;;;5018186;28;20048;-71
2022/09/25 01:04:27;;;;;;;4.60;1.35;;;7.90;99.90;;;;;;5035636;28;20490;-69
2022/09/25 01:06:53;;;;;;;4.38;1.02;;;7.80;99.90;;;;;;5017376;28;20102;-69
2022/09/25 01:09:19;;;;;;;8.77;1.80;;;7.80;99.90;;;;;;5035544;28;20436;-69
2022/09/25 01:11:45;;;;;;;4.68;1.00;;;7.80;99.90;;;;;;5035452;28;20124;-70
2022/09/25 01:14:15;;;;;;;4.93;1.52;;;7.80;99.90;;;;;;5035520;28;20037;-71
2022/09/25 01:16:59;;;;;;;8.80;1.75;;;7.80;99.90;;;;;;5017384;28;20056;-72
2022/09/25 01:19:31;;;;;;;4.03;1.35;;;7.80;99.90;;;;;;5017568;28;20057;-71
2022/09/25 01:22:08;;;;;;;4.37;1.20;;;7.80;99.90;;;;;;5016772;28;20102;-71
2022/09/25 01:25:01;;;;;;;6.75;1.38;;;8.30;99.90;;;;;;5017306;28;20509;-71
2022/09/25 01:27:59;;;;;;;7.57;1.48;;;7.80;99.90;;;;;;5017449;28;20049;-71
2022/09/25 01:30:25;;;;;;;4.40;1.67;;;7.80;99.90;;;;;;5034876;28;20084;-72
2022/09/25 01:32:57;;;;;;;6.45;1.45;;;7.90;99.90;;;;;;5001005;28;20049;-71
2022/09/25 01:35:48;;;;;;;8.52;2.33;;;7.80;99.90;;;;;;5000877;28;20045;-70
2022/09/25 01:38:24;;;;;;;3.78;1.38;;;7.90;99.90;;;;;;5017187;28;20405;-70
2022/09/25 01:41:29;;;;;;;10.88;2.08;;;7.70;99.90;;;;;;5017061;28;20045;-68
2022/09/25 01:44:21;;;;;;;5.55;1.27;;;7.70;99.90;;;;;;5034969;28;20064;-69
2022/09/25 01:46:51;;;;;;;;;;;7.70;99.90;;;;;;5035496;28;20128;-70
2022/09/25 01:49:25;;;;;;;4.57;1.77;;;7.60;99.90;;;;;;5034661;28;20384;-70
2022/09/25 01:51:53;;;;;;;5.18;1.35;;;7.80;99.90;;;;;;5034252;28;20037;-70
2022/09/25 01:54:33;;;;;;;4.00;1.17;;;7.60;99.90;;;;;;5016757;28;20610;-68
2022/09/25 01:57:06;;;;;;;2.97;1.20;;;7.60;99.90;;;;;;5016690;28;20382;-68
2022/09/25 01:59:38;;;;;;;4.18;1.30;;;7.60;99.90;;;;;;5015831;28;20053;-69
2022/09/25 02:02:07;;;;;;;5.72;1.30;;;7.50;99.90;;;;;;5034634;28;20045;-70
2022/09/25 02:04:56;;;;;;;4.50;1.42;;;7.60;99.90;;;;;;5034554;28;20373;-69
2022/09/25 02:07:29;;;;;;;6.10;1.20;;;7.50;99.90;;;;;;5033992;28;20560;-70
2022/09/25 02:10:01;;;;;;;5.95;1.40;;;7.50;99.90;;;;;;5034468;28;20045;-70
2022/09/25 02:12:35;;;;;;;6.88;1.60;;;7.50;99.90;;;;;;5016487;28;20512;-71
2022/09/25 02:15:09;;;;;;;12.55;2.17;;;7.50;99.90;;;;;;5016471;28;20038;-71
2022/09/25 02:20:35;;;;;;;6.55;1.60;;;7.50;99.90;;;;;;5016044;28;20550;-70
2022/09/25 02:23:25;;;;;;;4.70;1.50;;;7.40;99.90;;;;;;5033929;28;20057;-70
2022/09/25 02:26:01;;;;;;;9.10;1.70;;;7.40;99.90;;;;;;5033914;28;20536;-70
2022/09/25 02:28:26;;;;;;;5.53;1.70;;;7.40;99.90;;;;;;5016293;28;20433;-70
2022/09/25 02:30:55;;;;;;;5.25;2.15;;;7.40;99.90;;;;;;5016631;28;20042;-70
2022/09/25 02:33:21;;;;;;;8.70;1.73;;;7.30;99.90;;;;;;5016126;28;20120;-69
2022/09/25 02:35:47;;;;;;;8.60;2.38;;;7.30;99.90;;;;;;5016345;28;20489;-70
2022/09/25 02:38:13;;;;;;;4.25;1.67;;;7.30;99.90;;;;;;5015753;28;20053;-69
2022/09/25 02:41:13;;;;;;;5.07;1.33;;;7.30;99.90;;;;;;5033418;28;20382;-69
2022/09/25 02:44:10;;;;;;;4.35;1.55;;;7.30;99.90;;;;;;5033779;28;20064;-70
2022/09/25 02:46:54;;;;;;;5.63;1.30;;;7.20;99.90;;;;;;4972620;28;20055;-70
2022/09/25 02:49:52;;;;;;;4.90;1.77;;;7.20;99.90;;;;;;4972721;28;20053;-69
2022/09/25 02:52:39;;;;;;;5.30;1.52;;;7.10;99.90;;;;;;4972612;28;20055;-69
2022/09/25 02:55:28;;;;;;;5.00;1.50;;;7.10;99.90;;;;;;4971947;28;20085;-69
2022/09/25 02:58:29;;;;;;;6.35;1.48;;;7.10;99.90;;;;;;4972586;28;20131;-69
2022/09/25 03:00:56;;;;;;;5.40;1.52;;;7.00;99.90;;;;;;4956505;28;20082;-69
2022/09/25 03:03:24;;;;;;;4.80;1.52;;;7.00;99.90;;;;;;4972312;28;20059;-70
2022/09/25 03:05:54;;;;;;;7.63;2.15;;;6.90;99.90;;;;;;4972182;28;20058;-69
2022/09/25 03:11:11;;;;;;;8.38;1.83;;;6.90;99.90;;;;;;4971434;28;20542;-70
2022/09/25 03:13:37;;;;;;;4.60;1.75;;;6.90;99.90;;;;;;4939620;28;20051;-72
2022/09/25 03:16:14;;;;;;;4.90;1.48;;;6.90;99.90;;;;;;4955698;28;20054;-70
2022/09/25 03:18:40;;;;;;;5.40;1.70;;;6.90;99.90;;;;;;4972303;28;20046;-69
2022/09/25 03:21:06;;;;;;;6.78;1.52;;;6.90;99.90;;;;;;4955866;28;20082;-70
2022/09/25 03:23:32;;;;;;;4.85;1.40;;;6.90;99.90;;;;;;4996363;28;20050;-69
2022/09/25 03:25:58;;;;;;;5.07;1.38;;;6.90;99.90;;;;;;5012889;28;20041;-69
2022/09/25 03:28:23;;;;;;;7.57;1.33;;;6.90;99.90;;;;;;5012978;28;20425;-69
2022/09/25 03:31:09;;;;;;;11.95;2.22;;;6.90;99.90;;;;;;5011497;28;20116;-69
2022/09/25 03:33:37;;;;;;;4.03;1.50;;;6.90;99.90;;;;;;5011587;28;20042;-69
2022/09/25 03:36:20;;;;;;;3.28;1.30;;;6.90;99.90;;;;;;5011700;28;20056;-69
2022/09/25 03:38:49;;;;;;;6.85;1.58;;;6.80;99.90;;;;;;5012927;28;20126;-69
2022/09/25 03:41:19;;;;;;;5.93;1.60;;;6.80;99.90;;;;;;5012860;28;20045;-70
2022/09/25 03:43:50;;;;;;;4.53;1.23;;;6.80;99.90;;;;;;4995547;28;20041;-71
2022/09/25 03:46:16;;;;;;;5.03;1.00;;;6.80;99.90;;;;;;5013131;28;20085;-69
2022/09/25 03:48:42;;;;;;;7.07;1.40;;;6.80;99.90;;;;;;5013058;28;20457;-73
2022/09/25 03:51:09;;;;;;;5.60;1.50;;;6.80;99.90;;;;;;5012893;28;20079;-69
2022/09/25 03:53:35;;;;;;;5.22;1.33;;;6.80;99.90;;;;;;5011323;28;20128;-68
2022/09/25 03:56:07;;;;;;;4.95;1.35;;;6.70;99.90;;;;;;5012550;28;20125;-68
2022/09/25 03:58:33;;;;;;;5.78;1.52;;;6.80;99.90;;;;;;5012670;28;20107;-69
2022/09/25 04:01:00;;;;;;;4.45;1.15;;;6.70;99.90;;;;;;4995023;28;20122;-71
2022/09/25 04:03:28;;;;;;;3.55;1.23;;;6.70;99.90;;;;;;5012681;28;20091;-70
2022/09/25 04:05:55;;;;;;;2.90;1.00;;;6.70;99.90;;;;;;5011296;28;20054;-69
2022/09/25 04:08:22;;;;;;;5.30;1.02;;;6.70;99.90;;;;;;5012385;28;20034;-67
2022/09/25 04:10:48;;;;;;;4.07;0.90;;;6.70;99.90;;;;;;5010918;28;20085;-68
2022/09/25 04:13:15;;;;;;;1.92;0.80;;;7.00;99.90;;;;;;5011546;28;20081;-70
2022/09/25 04:15:41;;;;;;;6.13;1.42;;;6.70;99.90;;;;;;5012521;28;20042;-69
2022/09/25 04:18:08;;;;;;;4.18;1.10;;;6.70;99.90;;;;;;5012484;28;20056;-68
2022/09/25 04:20:34;;;;;;;5.00;1.23;;;6.70;99.90;;;;;;5012606;28;20394;-69
2022/09/25 04:23:00;;;;;;;4.18;1.23;;;6.80;99.90;;;;;;4981913;28;20045;-69
2022/09/25 04:25:26;;;;;;;5.47;1.50;;;6.70;99.90;;;;;;5016797;28;20120;-70
2022/09/25 04:27:54;;;;;;;7.22;2.20;;;6.70;99.90;;;;;;4998555;28;20124;-69
2022/09/25 04:30:21;;;;;;;5.80;1.67;;;6.70;99.90;;;;;;4998944;28;20048;-68
2022/09/25 04:35:32;;;;;;;4.90;1.40;;;6.70;99.90;;;;;;4998547;28;20478;-68
2022/09/25 04:37:57;;;;;;;5.95;2.00;;;6.80;99.90;;;;;;4998759;28;20057;-69
2022/09/25 04:40:23;;;;;;;10.05;1.95;;;6.80;99.90;;;;;;4998913;28;20437;-69
2022/09/25 04:42:55;;;;;;;6.93;1.88;;;6.80;99.90;;;;;;5015666;28;20116;-68
2022/09/25 04:45:20;;;;;;;4.55;1.33;;;6.80;99.90;;;;;;5015916;28;20397;-68
2022/09/25 04:47:46;;;;;;;8.15;2.15;;;6.80;99.90;;;;;;5016035;28;20125;-68
2022/09/25 04:50:12;;;;;;;7.32;2.28;;;6.80;99.90;;;;;;4998664;28;20054;-68
2022/09/25 04:52:38;;;;;;;4.63;1.63;;;6.80;99.90;;;;;;4998587;28;20049;-68
2022/09/25 04:55:04;;;;;;;6.70;1.98;;;6.80;99.90;;;;;;5016206;28;20042;-68
2022/09/25 04:57:30;;;;;;;5.70;2.00;;;6.80;99.90;;;;;;5014469;28;20116;-69
2022/09/25 04:59:56;;;;;;;7.10;1.92;;;6.80;99.90;;;;;;4998094;28;20038;-68
2022/09/25 05:02:26;;;;;;;5.20;1.40;;;6.70;99.90;;;;;;5015695;28;20486;-69
2022/09/25 05:04:52;;;;;;;7.22;1.65;;;6.80;99.90;;;;;;5015667;28;20098;-69
2022/09/25 05:07:18;;;;;;;7.53;1.80;;;6.70;99.90;;;;;;5015417;28;20062;-69
2022/09/25 05:09:43;;;;;;;9.02;2.05;;;7.00;99.90;;;;;;5015553;28;20050;-69
2022/09/25 05:12:09;;;;;;;11.38;2.63;;;6.70;99.90;;;;;;4997807;28;20076;-69
2022/09/25 05:14:34;;;;;;;6.28;1.63;;;6.70;99.90;;;;;;5014257;28;20038;-68
2022/09/25 05:17:00;;;;;;;7.30;1.95;;;6.70;99.90;;;;;;4997976;28;20053;-69
2022/09/25 05:19:26;;;;;;;5.53;1.65;;;6.70;99.90;;;;;;4998009;28;20545;-67
2022/09/25 05:21:52;;;;;;;8.07;1.65;;;6.70;99.90;;;;;;4997613;28;20049;-69
2022/09/25 05:24:18;;;;;;;21.00;2.92;;;6.70;99.90;;;;;;4997916;28;20100;-67
2022/09/25 05:26:44;;;;;;;12.90;1.77;;;6.60;99.90;;;;;;4997836;28;20120;-69
2022/09/25 05:29:09;;;;;;;7.63;1.80;;;6.60;99.90;;;;;;4997683;28;20443;-69
2022/09/25 05:31:37;;;;;;;5.90;1.35;;;6.60;99.90;;;;;;4997625;28;20046;-69
2022/09/25 05:34:02;;;;;;;7.43;1.85;;;6.60;99.90;;;;;;5013449;28;20049;-69
2022/09/25 05:36:28;;;;;;;4.18;1.23;;;6.80;99.90;;;;;;5015046;28;20510;-69
2022/09/25 05:38:55;;;;;;;3.83;1.35;;;6.50;99.90;;;;;;4997801;28;20058;-68
2022/09/25 05:41:20;;;;;;;5.57;1.70;;;6.50;99.90;;;;;;4997356;28;20050;-67
2022/09/25 05:43:46;;;;;;;5.88;1.55;;;6.50;99.90;;;;;;4997471;28;20061;-69
2022/09/25 05:46:13;;;;;;;3.60;1.30;;;6.50;99.90;;;;;;4997284;28;20060;-69
2022/09/25 05:48:39;;;;;;;5.95;1.38;;;6.60;99.90;;;;;;5014871;28;20049;-69
2022/09/25 05:51:05;;;;;;;7.30;1.33;;;6.60;99.90;;;;;;5015094;28;20466;-69
2022/09/25 05:53:30;;;;;;;4.65;1.52;;;6.60;99.90;;;;;;4997297;28;20540;-70
2022/09/25 05:55:59;;;;;;;3.38;1.00;;;6.50;99.90;;;;;;5015155;28;20050;-67
2022/09/25 05:58:26;;;;;;;5.80;1.48;;;6.60;99.90;;;;;;4997110;28;20050;-69
2022/09/25 06:00:53;;;;;;;5.28;1.70;;;6.60;99.90;;;;;;4997766;28;20048;-68
2022/09/25 06:03:20;;;;;;;5.35;1.50;;;6.60;99.90;;;;;;5014730;28;20045;-68
2022/09/25 06:05:46;;;;;;;5.65;1.50;;;6.60;99.90;;;;;;5014414;28;20549;-69
2022/09/25 06:08:12;;;;;;;4.10;1.40;;;6.60;99.90;;;;;;4996930;28;20066;-69
2022/09/25 06:10:39;;;;;;;7.53;1.83;;;6.70;99.90;;;;;;4997275;28;20420;-68
2022/09/25 06:13:05;;;;;;;9.00;1.80;;;6.70;99.90;;;;;;4997314;28;20406;-70
2022/09/25 06:15:36;;;;;;;6.35;1.85;;;6.70;99.90;;;;;;5014223;28;20037;-69
2022/09/25 06:18:03;;;;;;;5.10;1.80;;;6.80;99.90;;;;;;4996724;28;20042;-70
2022/09/25 06:20:29;;;;;;;7.05;1.42;;;6.80;99.90;;;;;;4997136;28;20053;-70
2022/09/25 06:22:56;;;;;;;6.03;1.75;;;6.80;99.90;;;;;;4996832;28;20050;-69
2022/09/25 06:25:25;;;;;;;7.57;1.80;;;6.90;99.90;;;;;;5014025;28;20038;-69
2022/09/25 06:27:55;;;;;;;12.82;2.15;;;7.00;99.90;;;;;;4996880;28;20133;-69
2022/09/25 06:30:22;;;;;;;7.82;1.65;;;7.00;99.90;;;;;;4996552;28;20041;-69
2022/09/25 06:32:55;;;;;;;7.88;1.77;;;7.20;99.90;;;;;;5014070;28;20153;-70
2022/09/25 06:35:21;;;;;;;7.50;1.60;;;7.20;99.90;;;;;;5009569;28;20085;-69
2022/09/25 06:37:47;;;;;;;9.27;1.85;;;7.20;99.90;;;;;;5015896;28;20045;-68
2022/09/25 06:40:12;;;;;;;7.38;2.13;;;7.30;99.90;;;;;;5016177;28;20046;-71
2022/09/25 06:42:38;;;;;;;10.88;2.55;;;7.40;99.90;;;;;;5016049;28;20095;-68
2022/09/25 06:45:04;;;;;;;9.07;2.00;;;7.90;99.90;;;;;;5033385;28;20038;-69
2022/09/25 06:47:29;;;;;;;7.82;2.20;;;7.60;99.90;;;;;;5033434;28;20052;-68
2022/09/25 06:49:55;;;;;;;9.13;2.45;;;7.70;99.90;;;;;;5033530;28;20041;-69
2022/09/25 06:52:21;;;;;;;11.02;2.42;;;7.80;99.90;;;;;;5033381;28;20038;-68
2022/09/25 06:54:46;;;;;;;6.60;1.90;;;7.90;99.90;;;;;;5033762;28;20049;-69
2022/09/25 06:57:12;;;;;;;9.10;2.10;;;8.00;99.90;;;;;;5033312;28;20045;-70
2022/09/25 06:59:38;;;;;;;8.00;2.40;;;8.00;99.90;;;;;;5032756;28;20125;-70
2022/09/25 07:05:05;;;;;;;11.27;2.33;;;8.20;99.90;;;;;;4952739;29;20050;-70
2022/09/25 07:07:30;;;;;;;12.90;2.30;;;8.30;99.90;;;;;;4936794;29;20134;-70
2022/09/25 07:09:56;;;;;;;13.02;2.50;;;8.30;99.90;;;;;;4953278;29;20057;-69
2022/09/25 07:12:22;;;;;;;6.28;2.13;;;8.40;99.90;;;;;;4952553;29;20090;-70
2022/09/25 07:14:47;;;;;;;7.60;1.95;;;8.50;99.90;;;;;;4952536;29;20051;-68
2022/09/25 07:17:13;;;;;;;10.27;2.65;;;8.60;99.90;;;;;;4936001;29;20035;-68
2022/09/25 07:19:39;;;;;;;10.20;2.83;;;8.70;99.90;;;;;;4949854;28;20055;-69
2022/09/25 07:22:05;;;;;;;6.10;2.28;;;8.80;99.90;;;;;;4951379;28;20035;-68
2022/09/25 07:24:31;;;;;;;7.85;2.42;;;8.90;99.90;;;;;;4952974;29;20380;-69
2022/09/25 07:26:57;;;;;;;10.10;2.35;;;9.10;99.90;;;;;;4952443;29;20055;-68
2022/09/25 07:29:22;;;;;;;6.82;1.92;;;9.20;99.90;;;;;;4944236;29;20522;-69
2022/09/25 07:31:48;;;;;;;7.55;2.00;;;9.30;99.90;;;;;;4951344;29;20051;-69
2022/09/25 07:34:15;;;;;;;11.63;3.20;;;9.50;99.90;;;;;;4951604;29;20039;-67
2022/09/25 07:36:41;;;;;;;10.13;2.88;;;9.60;99.90;;;;;;4952512;29;20059;-67
2022/09/25 07:39:08;;;;;;;12.98;4.43;;;9.70;99.90;;;;;;4968198;28;20061;-70
2022/09/25 07:41:33;;;;;;;8.85;2.60;;;9.80;99.90;;;;;;5001061;28;20030;-68
2022/09/25 07:43:59;;;;;;;14.65;2.80;;;9.90;99.90;;;;;;5010129;28;20515;-71
2022/09/25 07:46:26;;;;;;;11.68;2.40;;;10.00;99.90;;;;;;5017155;28;20060;-68
2022/09/25 07:48:53;;;;;;;6.70;2.05;;;10.10;99.90;;;;;;5012708;28;20060;-71
2022/09/25 07:51:22;;;;;;;6.20;2.13;;;10.30;99.90;;;;;;5032509;28;20059;-68
2022/09/25 07:53:48;;;;;;;8.75;2.58;;;10.60;99.90;;;;;;5031992;28;20515;-69
2022/09/25 07:56:14;;;;;;;9.68;2.28;;;10.70;99.90;;;;;;5014334;28;20046;-68
2022/09/25 07:58:40;;;;;;;10.20;2.50;;;10.60;99.90;;;;;;5024948;28;20529;-68
2022/09/25 08:01:09;;;;;;;7.85;2.20;;;10.80;99.90;;;;;;5023078;28;20046;-69
2022/09/25 08:03:35;;;;;;;11.10;2.78;;;10.90;99.90;;;;;;5017359;28;20088;-70
2022/09/25 08:06:05;;;;;;;6.28;1.65;;;10.90;99.90;;;;;;5014051;28;20089;-67
2022/09/25 08:08:33;;;;;;;10.85;4.47;;;11.10;99.90;;;;;;5014724;28;20057;-68
2022/09/25 08:11:05;;;;;;;5.57;1.83;;;11.20;99.90;;;;;;5023048;28;20033;-69
2022/09/25 08:13:32;;;;;;;7.10;1.77;;;11.40;99.90;;;;;;5009322;28;20444;-70
2022/09/25 08:15:58;;;;;;;8.60;1.63;;;11.50;99.90;;;;;;5025266;28;20037;-69
2022/09/25 08:18:23;;;;;;;10.23;1.55;;;11.60;99.90;;;;;;5012412;28;20533;-72
2022/09/25 08:20:49;;;;;;;8.68;1.75;;;11.60;99.90;;;;;;5012466;28;20122;-70
2022/09/25 08:23:15;;;;;;;8.32;1.40;;;11.80;99.90;;;;;;5024076;28;20049;-68
2022/09/25 08:25:41;;;;;;;7.05;1.30;;;11.90;99.90;;;;;;5016599;28;20072;-67
2022/09/25 08:28:06;;;;;;;5.68;1.20;;;12.00;99.90;;;;;;5028377;28;20493;-69
2022/09/25 08:30:32;;;;;;;3.75;1.10;;;12.30;99.90;;;;;;5000042;28;20493;-68
2022/09/25 08:32:58;;;;;;;20.70;1.75;;;12.30;99.90;;;;;;5023314;28;20133;-69
2022/09/25 08:35:24;;;;;;;4.85;1.55;;;12.60;99.90;;;;;;5025412;28;20045;-72
2022/09/25 08:37:50;;;;;;;4.07;1.13;;;12.50;99.90;;;;;;5015854;28;20045;-70
2022/09/25 08:40:18;;;;;;;8.93;1.27;;;12.60;99.90;;;;;;5012763;28;20049;-70
2022/09/25 08:42:47;;;;;;;5.78;1.33;;;12.80;99.90;;;;;;5020450;28;20060;-70
2022/09/25 08:51:05;;;;;;;7.03;1.17;;;13.10;99.90;;;;;;5022029;28;19952;-67
2022/09/25 08:53:33;;;;;;;5.18;1.13;;;13.30;99.90;;;;;;5011869;28;20125;-68
2022/09/25 08:56:16;;;;;;;5.32;0.95;;;13.50;99.90;;;;;;5028797;28;20046;-69
2022/09/25 08:58:50;;;;;;;4.55;0.95;;;13.50;99.90;;;;;;5019726;28;20501;-68
2022/09/25 09:01:39;;;;;;;9.18;1.33;;;13.60;99.90;;;;;;5032247;28;20049;-68
2022/09/25 09:04:25;;;;;;;9.52;1.35;;;13.70;99.90;;;;;;5014368;28;20052;-67
2022/09/25 09:07:05;;;;;;;3.70;1.00;;;13.90;99.90;;;;;;5013531;28;20058;-68
2022/09/25 09:09:39;;;;;;;6.03;1.00;;;14.00;99.90;;;;;;5014471;28;20044;-69
2022/09/25 09:12:13;;;;;;;7.45;1.27;;;14.20;99.90;;;;;;4999192;28;20095;-66
2022/09/25 09:14:47;;;;;;;3.22;1.40;;;14.40;99.90;;;;;;4998302;28;20085;-69
2022/09/25 09:17:19;;;;;;;4.82;0.93;;;14.70;99.90;;;;;;5015883;28;20034;-72
2022/09/25 09:19:49;;;;;;;8.10;1.17;;;14.90;99.90;;;;;;5016093;28;20069;-72
2022/09/25 09:22:23;;;;;;;8.68;1.25;;;15.20;99.90;;;;;;5017512;28;20037;-72
2022/09/25 09:24:57;;;;;;;5.50;1.73;;;15.30;99.90;;;;;;5015626;28;20107;-71
2022/09/25 09:27:41;;;;;;;3.72;0.60;;;15.30;99.90;;;;;;5014655;28;20096;-68
2022/09/25 09:30:10;;;;;;;5.20;1.00;;;15.10;99.90;;;;;;5016295;28;20050;-73
2022/09/25 09:33:18;;;;;;;2.33;1.00;;;14.90;99.90;;;;;;5015997;28;20046;-71
2022/09/25 09:36:06;;;;;;;5.82;0.80;;;14.60;99.90;;;;;;4989904;28;20054;-69
2022/09/25 09:38:46;;;;;;;3.65;1.00;;;14.40;99.90;;;;;;4997544;28;20048;-68
2022/09/25 09:41:33;;;;;;;5.32;0.80;;;14.30;99.90;;;;;;5007838;28;20397;-70
2022/09/25 09:44:03;;;;;;;4.70;1.08;;;14.30;99.90;;;;;;5007181;28;20154;-67
2022/09/25 09:47:04;;;;;;;3.25;0.80;;;14.40;99.90;;;;;;5024105;28;20033;-69
2022/09/25 09:49:42;;;;;;;4.45;0.95;;;14.60;99.90;;;;;;5021216;28;20069;-69
2022/09/25 09:52:22;;;;;;;2.22;0.70;;;14.80;99.90;;;;;;5003642;28;20129;-69
2022/09/25 09:54:54;;;;;;;8.80;1.23;;;15.10;99.90;;;;;;5008962;28;20481;-71
2022/09/25 09:57:26;;;;;;;;;;;15.20;99.90;;;;;;5008195;28;20091;-68
2022/09/25 09:59:57;;;;;;;;;;;15.30;99.90;;;;;;5027035;28;20328;-70
2022/09/25 10:02:50;;;;;;;1.90;0.47;;;15.30;99.90;;;;;;5014402;28;19925;-70
2022/09/25 10:05:27;;;;;;;6.93;1.15;;;15.40;99.90;;;;;;5021023;28;20076;-69
2022/09/25 10:07:53;;;;;;;4.28;0.80;;;15.40;99.90;;;;;;5018437;28;20042;-69
2022/09/25 10:10:19;;;;;;;4.95;0.75;;;15.40;99.90;;;;;;5001379;28;20065;-71
2022/09/25 10:12:50;;;;;;;3.10;0.60;;;15.60;99.90;;;;;;5024879;28;20096;-71
2022/09/25 10:15:41;;;;;;;5.77;0.70;;;15.80;99.90;;;;;;5008778;28;20057;-72
2022/09/25 10:18:07;;;;;;;0.88;0.47;;;15.90;99.90;;;;;;5020577;28;20363;-69
2022/09/25 10:20:40;;;;;;;6.35;1.45;;;15.80;99.90;;;;;;5000471;28;20425;-71
2022/09/25 10:23:37;;;;;;;2.35;0.80;;;15.90;99.90;;;;;;5017582;28;20527;-72
2022/09/25 10:26:05;;;;;;;4.55;0.80;;;16.00;99.90;;;;;;5017180;28;20049;-68
2022/09/25 10:28:35;;;;;;;3.80;0.85;;;16.20;99.90;;;;;;5015974;28;20029;-71
2022/09/25 10:31:04;;;;;;;6.75;1.42;;;16.40;99.90;;;;;;5015561;28;20046;-69
2022/09/25 10:33:31;;;;;;;2.20;0.80;;;16.50;99.90;;;;;;5015382;28;20424;-69
2022/09/25 10:35:57;;;;;;;4.28;0.60;;;16.60;99.90;;;;;;5014835;28;20034;-72
2022/09/25 10:38:47;;;;;;;4.93;1.00;;;16.60;99.90;;;;;;5018033;28;20122;-69
2022/09/25 10:41:16;;;;;;;5.43;0.95;;;16.50;99.90;;;;;;5015691;28;20119;-71
2022/09/25 10:43:58;;;;;;;2.38;0.77;;;16.30;99.90;;;;;;5014797;28;20052;-67
2022/09/25 10:52:04;;;;;;;3.38;0.85;;;16.00;99.90;;;;;;5012647;28;20050;-71
2022/09/25 10:54:30;;;;;;;4.60;0.90;;;16.10;99.90;;;;;;5020144;28;20053;-70
2022/09/25 10:56:56;;;;;;;7.25;1.30;;;16.10;99.90;;;;;;4999899;28;20058;-69
2022/09/25 10:59:23;;;;;;;5.20;0.95;;;16.10;99.90;;;;;;4999127;28;21063;-73
2022/09/25 11:01:54;;;;;;;4.95;1.50;;;16.20;99.90;;;;;;5014417;28;20591;-72
2022/09/25 11:04:33;;;;;;;3.85;1.25;;;16.30;99.90;;;;;;5014394;28;20050;-72
2022/09/25 11:07:06;;;;;;;4.97;0.90;;;16.40;99.90;;;;;;5016715;28;20473;-73
2022/09/25 11:09:34;;;;;;;2.03;0.65;;;16.50;99.90;;;;;;5018639;28;20048;-73
2022/09/25 11:12:13;;;;;;;4.22;1.00;;;16.60;99.90;;;;;;5012364;28;20042;-72
2022/09/25 11:14:50;;;;;;;6.55;1.17;;;16.80;99.90;;;;;;5000482;28;20480;-72
2022/09/25 11:17:42;;;;;;;1.90;0.63;;;17.00;99.90;;;;;;4995121;28;20089;-70
2022/09/25 11:20:31;;;;;;;3.83;0.80;;;17.00;99.90;;;;;;5016788;28;20045;-73
2022/09/25 11:23:25;;;;;;;6.80;0.80;;;17.10;99.90;;;;;;4983734;28;20053;-72
2022/09/25 11:25:56;;;;;;;3.28;0.70;;;16.90;99.90;;;;;;5017869;28;20073;-75
2022/09/25 11:28:24;;;;;;;3.85;0.70;;;17.00;99.90;;;;;;5015897;28;20112;-75
2022/09/25 11:31:14;;;;;;;5.72;1.38;;;17.20;99.90;;;;;;5021062;28;20052;-75
2022/09/25 11:34:09;;;;;;;1.48;0.60;;;17.10;99.90;;;;;;5012386;28;20038;-73
2022/09/25 11:36:42;;;;;;;6.13;0.95;;;17.00;99.90;;;;;;5017963;28;20049;-73
2022/09/25 11:42:24;;;;;;;3.80;0.80;;;16.60;99.90;;;;;;5001281;28;20053;-76
2022/09/25 11:44:59;;;;;;;4.30;0.70;;;16.50;99.90;;;;;;5014800;28;20045;-75
2022/09/25 11:47:37;;;;;;;5.35;0.90;;;16.40;99.90;;;;;;5015455;28;20052;-68
2022/09/25 11:50:05;;;;;;;3.20;0.75;;;16.30;99.90;;;;;;5015945;28;20077;-71
2022/09/25 11:52:46;;;;;;;4.28;0.60;;;16.30;99.90;;;;;;4977699;28;20366;-69
2022/09/25 11:55:44;;;;;;;2.33;0.73;;;16.10;99.90;;;;;;5015986;28;20453;-72
2022/09/25 11:58:21;;;;;;;4.10;0.90;;;15.90;99.90;;;;;;4995796;28;20496;-68
2022/09/25 12:00:59;;;;;;;3.45;0.80;;;15.70;99.90;;;;;;5016413;28;20489;-71
2022/09/25 12:03:35;;;;;;;0.85;0.55;;;15.50;99.90;;;;;;5021134;28;20096;-73
2022/09/25 12:06:22;;;;;;;1.67;0.52;;;15.40;99.90;;;;;;5018312;28;20049;-72
2022/09/25 12:09:12;;;;;;;3.25;0.70;;;15.30;99.90;;;;;;5019784;28;20046;-71
2022/09/25 12:11:55;;;;;;;2.00;0.75;;;15.20;99.90;;;;;;5021681;28;20064;-71
2022/09/25 12:14:42;;;;;;;1.63;0.60;;;15.20;99.90;;;;;;5025629;28;20041;-72
2022/09/25 12:17:48;;;;;;;2.42;0.80;;;15.20;99.90;;;;;;5033282;28;20048;-70
2022/09/25 12:20:31;;;;;;;2.22;0.60;;;15.10;99.90;;;;;;4937141;29;20087;-71
2022/09/25 12:23:07;;;;;;;3.83;0.70;;;15.10;99.90;;;;;;4911577;29;20198;-71
2022/09/25 12:25:57;;;;;;;3.72;0.85;;;15.10;99.90;;;;;;4917077;29;20097;-72
2022/09/25 12:28:33;;;;;;;4.07;0.90;;;15.20;99.90;;;;;;4902282;29;20052;-72
2022/09/25 12:31:11;;;;;;;2.10;0.70;;;15.30;99.90;;;;;;4920002;29;20058;-72
2022/09/25 12:34:02;;;;;;;1.77;0.60;;;15.30;99.90;;;;;;4906384;29;20040;-74
2022/09/25 12:36:35;;;;;;;5.22;1.55;;;15.50;99.90;;;;;;4907840;29;20052;-73
2022/09/25 12:39:23;;;;;;;3.22;0.90;;;15.60;99.90;;;;;;4904852;29;20115;-70
2022/09/25 12:42:16;;;;;;;2.83;0.68;;;15.60;99.90;;;;;;4921289;29;20044;-74
2022/09/25 12:44:54;;;;;;;;;;;15.60;99.90;;;;;;4880455;29;20108;-70
2022/09/25 12:47:41;;;;;;;3.63;0.70;;;15.70;99.90;;;;;;4870314;29;19928;-73
2022/09/25 12:50:13;;;;;;;2.63;0.80;;;16.00;99.90;;;;;;4870479;29;20445;-73
2022/09/25 12:52:45;;;;;;;14.15;5.55;;;16.20;99.90;;;;;;4881524;29;20053;-72
2022/09/25 12:55:20;;;;;;;;;;;16.50;99.90;;;;;;4870842;29;20145;-72
2022/09/25 12:58:23;;;;;;;2.88;0.77;;;16.70;99.90;;;;;;4941779;29;19977;-72
2022/09/25 13:01:13;;;;;;;2.10;0.77;;;17.00;99.90;;;;;;4906589;29;20112;-73
2022/09/25 13:04:08;;;;;;;3.63;1.00;;;17.30;99.90;;;;;;4878947;29;20060;-73
2022/09/25 13:07:02;;;;;;;4.38;0.82;;;17.50;99.90;;;;;;4903036;29;20056;-72
2022/09/25 13:09:39;;;;;;;3.95;1.10;;;17.70;99.90;;;;;;4901755;29;20559;-71
2022/09/25 13:12:15;;;;;;;3.03;0.50;;;17.70;99.90;;;;;;4898111;29;20063;-71
2022/09/25 13:14:58;;;;;;;2.80;0.60;;;17.70;99.90;;;;;;4882555;29;20055;-68
2022/09/25 13:17:24;;;;;;;2.10;0.60;;;17.40;99.90;;;;;;4887600;29;20064;-69
2022/09/25 13:19:49;;;;;;;2.70;0.85;;;17.20;99.90;;;;;;4904478;29;20053;-70
2022/09/25 13:22:24;;;;;;;2.35;1.20;;;16.80;99.90;;;;;;4939345;29;20055;-72
2022/09/25 13:25:12;;;;;;;2.60;0.73;;;16.40;99.90;;;;;;4956820;29;20067;-69
2022/09/25 13:27:44;;;;;;;1.70;0.70;;;15.90;99.90;;;;;;4956631;28;20058;-71
2022/09/25 13:30:23;;;;;;;2.55;0.77;;;15.60;99.90;;;;;;4953972;28;20051;-71
2022/09/25 13:32:57;;;;;;;4.05;0.70;;;15.30;99.90;;;;;;4951632;28;20058;-72
2022/09/25 13:35:24;;;;;;;5.45;1.05;;;15.10;99.90;;;;;;4942024;29;20051;-70
2022/09/25 13:37:54;;;;;;;4.25;1.00;;;15.00;99.90;;;;;;4993927;28;20057;-70
2022/09/25 13:40:44;;;;;;;3.00;0.88;;;14.90;99.90;;;;;;5021959;28;20049;-69
2022/09/25 13:43:27;;;;;;;4.32;0.90;;;14.90;99.90;;;;;;5018432;28;20057;-72
2022/09/25 13:46:22;;;;;;;3.65;0.77;;;14.80;99.90;;;;;;4993324;28;20050;-69
2022/09/25 13:48:48;;;;;;;2.28;0.80;;;14.80;99.90;;;;;;5028243;28;20108;-69
2022/09/25 13:51:17;;;;;;;3.35;1.00;;;14.80;99.90;;;;;;5025023;28;20049;-72